Time;durP1;ratioP1;P1;durP2;ratioP2;P2;SDS_P1;SDS_P2;PMS_P1;PMS_P2;Temp;Humidity;BMP_temperature;BMP_pressure;BME280_temperature;BME280_humidity;BME280_pressure;Samples;Min_cycle;Max_cycle;Signal;HPM_P1;HPM_P2
2024/03/21 00:00:10;;;;;;;;;;;;;;;12.01;100.00;99883.75;4995388;28;19921;-80
2024/03/21 00:02:39;;;;;;;;;;;;;;;12.03;100.00;99889.88;4994362;28;19918;-82
2024/03/21 00:05:05;;;;;;;;;;;;;;;12.04;100.00;99888.06;4995297;28;19928;-81
2024/03/21 00:07:30;;;;;;;;;;;;;;;12.11;100.00;99892.16;4995132;28;20363;-80
2024/03/21 00:09:55;;;;;;;;;;;;;;;12.10;100.00;99895.75;4995179;28;19924;-82
2024/03/21 00:12:20;;;;;;;;;;;;;;;12.12;100.00;99896.53;4994780;28;19929;-81
2024/03/21 00:14:46;;;;;;;;;;;;;;;12.11;100.00;99895.69;4993733;28;20365;-81
2024/03/21 00:17:11;;;;;;;;;;;;;;;11.90;100.00;99894.88;4995045;28;19914;-79
2024/03/21 00:19:36;;;;;;;;;;;;;;;10.87;100.00;99881.72;4994941;28;19924;-78
2024/03/21 00:22:01;;;;;;;;;;;;;;;10.46;100.00;99886.09;4995010;28;19917;-77
2024/03/21 00:24:26;;;;;;;;;;;;;;;10.32;100.00;99890.19;4994984;28;19924;-80
2024/03/21 00:26:52;;;;;;;;;;;;;;;10.14;100.00;99886.44;4977163;28;20348;-80
2024/03/21 00:29:17;;;;;;;;;;;;;;;10.04;100.00;99884.22;4993675;28;19917;-80
2024/03/21 00:31:42;;;;;;;;;;;;;;;9.94;100.00;99884.59;4994625;28;19944;-80
2024/03/21 08:57:16;;;;;;;;;;;;;;;7.69;100.00;100301.00;5225224;23;20403;-86
2024/03/21 08:59:41;;;;;;;;;;;;;;;7.72;100.00;100311.47;4975023;28;20022;-88
2024/03/21 09:02:11;;;;;;;;;;;;;;;7.75;100.00;100307.88;4975135;28;19957;-85
2024/03/21 09:04:36;;;;;;;;;;;;;;;7.71;100.00;100306.22;4974036;28;19941;-83
2024/03/21 09:07:01;;;;;;;;;;;;;;;7.68;100.00;100306.31;4974857;28;20494;-85
2024/03/21 09:09:26;;;;;;;;;;;;;;;7.69;100.00;100303.63;4974635;28;20285;-83
2024/03/21 09:11:54;;;;;;;;;;;;;;;7.69;100.00;100302.75;4973291;28;19926;-84
2024/03/21 09:14:19;;;;;;;;;;;;;;;7.76;100.00;100305.22;4974810;28;20005;-86
2024/03/21 09:16:44;;;;;;;;;;;;;;;7.72;100.00;100310.59;4974599;28;19992;-84
2024/03/21 09:19:10;;;;;;;;;;;;;;;7.66;100.00;100308.09;4974391;28;19919;-83
2024/03/21 09:21:35;;;;;;;;;;;;;;;7.64;100.00;100308.13;4974547;28;19914;-83
2024/03/21 09:27:03;;;;;;;;;;;;;;;7.59;100.00;100310.00;4973138;28;20268;-83
2024/03/21 09:29:28;;;;;;;;;;;;;;;7.61;100.00;100308.19;4957184;28;20013;-81
2024/03/21 09:31:54;;;;;;;;;;;;;;;7.65;100.00;100309.88;4974139;28;19968;-82
2024/03/21 09:34:19;;;;;;;;;;;;;;;7.61;100.00;100310.81;4974283;28;20029;-82
2024/03/21 09:36:46;;;;;;;;;;;;;;;7.64;100.00;100309.00;4957183;28;19918;-82
2024/03/21 09:39:12;;;;;;;;;;;;;;;7.64;100.00;100310.75;4956746;28;20312;-82
2024/03/21 09:41:37;;;;;;;;;;;;;;;7.66;100.00;100319.53;4955535;28;20013;-81
2024/03/21 09:44:03;;;;;;;;;;;;;;;7.70;100.00;100320.31;4940500;28;19922;-81
2024/03/21 09:46:30;;;;;;;;;;;;;;;7.70;100.00;100326.44;4973448;28;20077;-79
2024/03/21 09:48:55;;;;;;;;;;;;;;;7.73;100.00;100328.16;4956579;28;19918;-80
2024/03/21 09:51:22;;;;;;;;;;;;;;;7.72;100.00;100332.56;4974088;28;19922;-81
2024/03/21 09:53:50;;;;;;;;;;;;;;;7.75;100.00;100335.13;4973531;28;20289;-87
2024/03/21 09:56:16;;;;;;;;;;;;;;;7.79;100.00;100333.31;4972548;28;19918;-80
2024/03/21 09:58:42;;;;;;;;;;;;;;;7.79;100.00;100343.84;4962557;28;20009;-80
2024/03/21 10:04:10;;;;;;;;;;;;;;;7.76;100.00;100360.59;4983948;28;20349;-84
2024/03/21 10:06:45;;;;;;;;;;;;;;;7.79;100.00;100364.97;4995178;28;20013;-83
2024/03/21 10:09:10;;;;;;;;;;;;;;;7.78;100.00;100373.75;4975427;28;19922;-83
2024/03/21 10:11:39;;;;;;;;;;;;;;;7.80;100.00;100364.94;4982296;28;19917;-81
2024/03/21 10:14:04;;;;;;;;;;;;;;;7.82;100.00;100368.38;4983547;28;19972;-83
2024/03/21 10:16:31;;;;;;;;;;;;;;;7.86;100.00;100365.69;4983232;28;19922;-80
2024/03/21 10:18:59;;;;;;;;;;;;;;;7.84;100.00;100364.88;4981497;28;19926;-80
2024/03/21 10:21:28;;;;;;;;;;;;;;;7.90;100.00;100360.31;4979482;28;20285;-81
2024/03/21 10:24:01;;;;;;;;;;;;;;;7.86;100.00;100365.69;4982072;28;19926;-81
2024/03/21 10:26:27;;;;;;;;;;;;;;;7.87;100.00;100364.78;4981711;28;19918;-81
2024/03/21 10:28:55;;;;;;;;;;;;;;;7.86;100.00;100368.31;4983546;28;19925;-79
2024/03/21 10:31:25;;;;;;;;;;;;;;;7.87;100.00;100367.44;4982809;28;19925;-80
2024/03/21 10:33:55;;;;;;;;;;;;;;;7.84;100.00;100354.31;4981710;28;19987;-80
2024/03/21 10:36:32;;;;;;;;;;;;;;;7.82;100.00;100364.91;4981485;28;19925;-83
2024/03/21 10:39:01;;;;;;;;;;;;;;;7.85;100.00;100369.22;4982718;28;19922;-82
2024/03/21 10:41:28;;;;;;;;;;;;;;;7.82;100.00;100364.91;4980676;28;19924;-81
2024/03/21 10:44:04;;;;;;;;;;;;;;;7.80;100.00;100364.03;4993731;28;19953;-83
2024/03/21 10:46:30;;;;;;;;;;;;;;;7.86;100.00;100363.91;4997783;28;19961;-80
2024/03/21 10:48:56;;;;;;;;;;;;;;;7.89;100.00;100363.84;4983119;28;19962;-80
2024/03/21 10:51:21;;;;;;;;;;;;;;;7.93;100.00;100359.34;4981503;28;19924;-80
2024/03/21 10:53:56;;;;;;;;;;;;;;;7.96;100.00;100368.09;4983180;28;20349;-80
2024/03/21 10:56:35;;;;;;;;;;;;;;;7.96;100.00;100361.91;4982768;28;20005;-81
2024/03/21 10:59:04;;;;;;;;;;;;;;;7.96;100.00;100368.09;4987992;28;19972;-82
2024/03/21 11:01:39;;;;;;;;;;;;;;;8.02;100.00;100372.34;4985482;28;19922;-81
2024/03/21 11:04:06;;;;;;;;;;;;;;;8.02;100.00;100374.13;4993996;28;19918;-88
2024/03/21 11:06:35;;;;;;;;;;;;;;;7.98;100.00;100368.91;4994676;28;19918;-80
2024/03/21 11:09:02;;;;;;;;;;;;;;;8.03;100.00;100360.03;4994330;28;19921;-81
2024/03/21 11:11:29;;;;;;;;;;;;;;;8.00;100.00;100366.25;4994089;28;20008;-82
2024/03/21 11:13:54;;;;;;;;;;;;;;;8.01;100.00;100362.72;4994792;28;19914;-81
2024/03/21 11:16:20;;;;;;;;;;;;;;;8.00;100.00;100363.59;4994605;28;19945;-87
2024/03/21 11:18:46;;;;;;;;;;;;;;;7.96;100.00;100364.56;4994302;28;20376;-81
2024/03/21 11:21:12;;;;;;;;;;;;;;;7.98;100.00;100361.00;4994149;28;19928;-92
2024/03/21 11:23:38;;;;;;;;;;;;;;;8.05;100.00;100369.63;4983344;28;20016;-82
2024/03/21 11:26:04;;;;;;;;;;;;;;;8.04;100.00;100361.75;4980344;28;19921;-82
2024/03/21 11:28:29;;;;;;;;;;;;;;;8.03;100.00;100360.88;4977736;28;20041;-81
2024/03/21 11:30:55;;;;;;;;;;;;;;;8.05;100.00;100352.94;4976864;28;19917;-85
2024/03/21 11:33:20;;;;;;;;;;;;;;;8.03;100.00;100358.25;4977643;28;19925;-81
2024/03/21 11:35:48;;;;;;;;;;;;;;;8.04;100.00;100351.19;4994154;28;19925;-82
2024/03/21 11:38:15;;;;;;;;;;;;;;;8.05;100.00;100359.06;4994124;28;20020;-79
2024/03/21 11:40:40;;;;;;;;;;;;;;;8.05;100.00;100348.53;4993716;28;20288;-82
2024/03/21 11:43:06;;;;;;;;;;;;;;;8.05;100.00;100347.66;4995424;28;19918;-85
2024/03/21 11:45:32;;;;;;;;;;;;;;;8.12;100.00;100358.03;4982812;28;20016;-82
2024/03/21 11:48:07;;;;;;;;;;;;;;;8.16;100.00;100372.88;4989443;28;20044;-83
2024/03/21 11:50:32;;;;;;;;;;;;;;;8.15;100.00;100368.53;4985383;28;19925;-82
2024/03/21 11:52:57;;;;;;;;;;;;;;;8.17;100.00;100355.31;4988811;28;19918;-82
2024/03/21 11:55:23;;;;;;;;;;;;;;;8.18;100.00;100355.25;4983074;28;20377;-83
2024/03/21 11:57:49;;;;;;;;;;;;;;;8.21;100.00;100358.72;4983794;28;19929;-86
2024/03/21 12:00:17;;;;;;;;;;;;;;;8.19;100.00;100359.63;4984312;28;19928;-80
2024/03/21 12:02:43;;;;;;;;;;;;;;;8.22;100.00;100366.59;4993614;28;19921;-80
2024/03/21 12:05:08;;;;;;;;;;;;;;;8.22;100.00;100366.59;4993864;28;19925;-82
2024/03/21 12:07:41;;;;;;;;;;;;;;;8.16;100.00;100354.41;4976490;28;20373;-81
2024/03/21 12:10:07;;;;;;;;;;;;;;;8.22;100.00;100365.72;4994199;28;19972;-80
2024/03/21 12:12:32;;;;;;;;;;;;;;;8.30;100.00;100361.16;4992182;28;19926;-80
2024/03/21 12:14:57;;;;;;;;;;;;;;;8.26;100.00;100375.31;4991482;28;19921;-82
2024/03/21 12:17:22;;;;;;;;;;;;;;;8.30;100.00;100377.00;4977045;28;19980;-80
2024/03/21 12:19:48;;;;;;;;;;;;;;;8.26;100.00;100370.03;4993979;28;19996;-82
2024/03/21 12:22:13;;;;;;;;;;;;;;;8.29;100.00;100377.88;4993652;28;19918;-82
2024/03/21 12:24:40;;;;;;;;;;;;;;;8.26;100.00;100375.31;4993897;28;19941;-83
2024/03/21 12:27:08;;;;;;;;;;;;;;;8.26;100.00;100372.69;4991953;28;19977;-91
2024/03/21 12:29:34;;;;;;;;;;;;;;;8.27;100.00;100374.41;4992436;28;20412;-81
2024/03/21 12:31:59;;;;;;;;;;;;;;;8.27;100.00;100369.13;4993553;28;19961;-82
2024/03/21 12:34:24;;;;;;;;;;;;;;;8.23;100.00;100368.31;4993550;28;19918;-81
2024/03/21 12:36:50;;;;;;;;;;;;;;;8.26;100.00;100372.69;4993874;28;20385;-81
2024/03/21 12:39:15;;;;;;;;;;;;;;;8.29;100.00;100375.25;4993755;28;19922;-80
2024/03/21 12:41:41;;;;;;;;;;;;;;;8.29;100.00;100373.47;4991451;28;19917;-80
2024/03/21 12:44:09;;;;;;;;;;;;;;;8.33;100.00;100367.22;4993456;28;19929;-84
2024/03/21 12:46:37;;;;;;;;;;;;;;;8.36;100.00;100363.66;4993325;28;19922;-87
2024/03/21 12:49:02;;;;;;;;;;;;;;;8.32;100.00;100364.59;4995561;28;19929;-81
2024/03/21 12:51:27;;;;;;;;;;;;;;;8.29;100.00;100367.31;4994618;28;20285;-81
2024/03/21 12:53:53;;;;;;;;;;;;;;;8.32;100.00;100367.25;4976412;28;19953;-81
2024/03/21 12:56:18;;;;;;;;;;;;;;;8.30;100.00;100372.56;4991103;28;19918;-81
2024/03/21 12:58:44;;;;;;;;;;;;;;;8.36;100.00;100366.28;4980638;28;19927;-82
2024/03/21 13:01:09;;;;;;;;;;;;;;;8.35;100.00;100369.81;4972586;28;19965;-80
2024/03/21 13:03:34;;;;;;;;;;;;;;;8.39;100.00;100376.75;4972463;28;19929;-86
2024/03/21 13:06:00;;;;;;;;;;;;;;;8.36;100.00;100380.34;4972501;28;19973;-84
2024/03/21 13:08:25;;;;;;;;;;;;;;;8.43;100.00;100381.09;4971025;28;19922;-81
2024/03/21 13:10:50;;;;;;;;;;;;;;;8.44;100.00;100382.84;4971286;28;19973;-84
2024/03/21 13:13:16;;;;;;;;;;;;;;;8.47;100.00;100385.41;4972474;28;19918;-84
2024/03/21 13:15:41;;;;;;;;;;;;;;;8.45;100.00;100388.97;4972507;28;19918;-85
2024/03/21 13:18:06;;;;;;;;;;;;;;;8.46;100.00;100386.28;4957132;28;19973;-86
2024/03/21 13:20:34;;;;;;;;;;;;;;;8.44;100.00;100393.41;4970600;28;19918;-88
2024/03/21 13:22:59;;;;;;;;;;;;;;;8.47;100.00;100384.50;4972971;28;19922;-87
2024/03/21 13:25:29;;;;;;;;;;;;;;;8.49;100.00;100386.22;4970517;28;19928;-83
2024/03/21 13:27:55;;;;;;;;;;;;;;;8.48;100.00;100368.63;4971879;28;19919;-84
2024/03/21 13:30:20;;;;;;;;;;;;;;;8.50;100.00;100377.41;4972107;28;19914;-85
2024/03/21 13:32:53;;;;;;;;;;;;;;;8.48;100.00;100373.91;4955945;28;19925;-86
2024/03/21 13:35:21;;;;;;;;;;;;;;;8.46;100.00;100369.59;4954709;28;19919;-85
2024/03/21 13:37:48;;;;;;;;;;;;;;;8.50;100.00;100376.53;4954794;28;19918;-85
2024/03/21 13:40:21;;;;;;;;;;;;;;;8.53;100.00;100371.16;5098521;27;19946;-85
2024/03/21 13:42:47;;;;;;;;;;;;;;;8.52;100.00;100364.13;5133055;27;19920;-86
2024/03/21 13:45:13;;;;;;;;;;;;;;;8.53;100.00;100369.38;5101070;28;19924;-88
2024/03/21 13:47:39;;;;;;;;;;;;;;;8.55;100.00;100371.97;5099807;28;20452;-85
2024/03/21 13:50:09;;;;;;;;;;;;;;;8.59;100.00;100376.28;5098088;28;19969;-87
2024/03/21 13:52:35;;;;;;;;;;;;;;;8.61;100.00;100371.81;5098201;28;19920;-88
2024/03/21 13:55:01;;;;;;;;;;;;;;;8.59;100.00;100371.00;5099727;28;19916;-86
2024/03/21 13:57:39;;;;;;;;;;;;;;;8.61;100.00;100369.19;5096576;28;19916;-96
2024/03/21 14:00:31;;;;;;;;;;;;;;;8.62;100.00;100375.34;5098837;28;20302;-91
2024/03/21 14:03:06;;;;;;;;;;;;;;;8.61;100.00;100377.09;5097801;28;19916;-93
2024/03/21 14:05:31;;;;;;;;;;;;;;;8.65;100.00;100375.28;5098729;28;20306;-87
2024/03/21 14:07:57;;;;;;;;;;;;;;;8.64;100.00;100362.97;5132920;27;19923;-83
2024/03/21 14:10:25;;;;;;;;;;;;;;;8.63;100.00;100366.50;5098229;28;19924;-85
2024/03/21 14:12:50;;;;;;;;;;;;;;;8.68;100.00;100367.25;5098464;28;20297;-84
2024/03/21 14:15:15;;;;;;;;;;;;;;;8.78;100.00;100366.13;5099023;28;19916;-87
2024/03/21 14:17:41;;;;;;;;;;;;;;;8.73;100.00;100362.75;5098276;28;19927;-85
2024/03/21 14:20:14;;;;;;;;;;;;;;;8.73;100.00;100360.94;5099010;28;19956;-85
2024/03/21 14:22:39;;;;;;;;;;;;;;;8.73;100.00;100357.44;5097891;28;19923;-86
2024/03/21 14:25:05;;;;;;;;;;;;;;;8.71;100.00;100348.69;5099451;28;20014;-85
2024/03/21 14:27:34;;;;;;;;;;;;;;;8.75;100.00;100357.41;5098256;28;20375;-84
2024/03/21 14:30:01;;;;;;;;;;;;;;;8.73;100.00;100358.31;5098627;28;19916;-85
2024/03/21 14:32:26;;;;;;;;;;;;;;;8.71;100.00;100349.56;5098602;28;19917;-83
2024/03/21 14:34:52;;;;;;;;;;;;;;;8.80;100.00;100353.72;5097384;28;20405;-85
2024/03/21 14:37:17;;;;;;;;;;;;;;;8.82;100.00;100356.31;5098249;28;20014;-83
2024/03/21 14:39:43;;;;;;;;;;;;;;;8.84;100.00;100359.78;5097538;28;20400;-85
2024/03/21 14:42:10;;;;;;;;;;;;;;;8.85;100.00;100357.09;5097907;28;19916;-82
2024/03/21 14:44:35;;;;;;;;;;;;;;;8.82;100.00;100359.84;5097134;28;19920;-83
2024/03/21 14:47:01;;;;;;;;;;;;;;;8.83;100.00;100358.94;5098406;28;19916;-84
2024/03/21 14:49:26;;;;;;;;;;;;;;;8.83;100.00;100358.06;5096885;28;19916;-85
2024/03/21 14:51:51;;;;;;;;;;;;;;;8.85;100.00;100357.09;5083363;28;20374;-87
2024/03/21 14:54:17;;;;;;;;;;;;;;;8.86;100.00;100348.28;5083602;28;19981;-86
2024/03/21 14:56:45;;;;;;;;;;;;;;;8.87;100.00;100347.38;5083733;28;19970;-91
2024/03/21 14:59:10;;;;;;;;;;;;;;;8.99;100.00;100356.75;5084524;28;19916;-87
2024/03/21 15:01:35;;;;;;;;;;;;;;;9.00;100.00;100349.66;5083238;28;20386;-87
2024/03/21 15:04:01;;;;;;;;;;;;;;;8.94;100.00;100350.72;5085108;28;20379;-91
2024/03/21 15:06:26;;;;;;;;;;;;;;;8.95;100.00;100354.22;5083536;28;19920;-87
2024/03/21 15:08:52;;;;;;;;;;;;;;;8.93;100.00;100353.41;5082094;28;19999;-87
2024/03/21 15:11:17;;;;;;;;;;;;;;;8.91;100.00;100346.38;5083154;28;20003;-86
2024/03/21 15:13:42;;;;;;;;;;;;;;;8.94;100.00;100349.88;5082968;28;19917;-85
2024/03/21 15:16:08;;;;;;;;;;;;;;;8.98;100.00;100356.78;5082970;28;19922;-86
2024/03/21 15:18:33;;;;;;;;;;;;;;;8.98;100.00;100351.50;5083160;28;19973;-87
2024/03/21 15:20:58;;;;;;;;;;;;;;;8.96;100.00;100343.59;5084515;28;19916;-85
2024/03/21 15:23:24;;;;;;;;;;;;;;;9.00;100.00;100344.38;5082791;28;20382;-86
2024/03/21 15:25:49;;;;;;;;;;;;;;;9.01;100.00;100343.50;5082805;28;19917;-85
2024/03/21 15:28:14;;;;;;;;;;;;;;;9.00;100.00;100349.66;5083201;28;19955;-87
2024/03/21 15:30:40;;;;;;;;;;;;;;;9.04;100.00;100340.75;5082652;28;19952;-83
2024/03/21 15:33:06;;;;;;;;;;;;;;;9.02;100.00;100342.59;5082773;28;20002;-85
2024/03/21 15:35:31;;;;;;;;;;;;;;;9.06;100.00;100350.41;5083772;28;20457;-86
2024/03/21 15:37:56;;;;;;;;;;;;;;;9.08;100.00;100347.72;5084028;28;20391;-85
2024/03/21 15:40:21;;;;;;;;;;;;;;;9.08;100.00;100355.63;5082553;28;19920;-86
2024/03/21 15:42:49;;;;;;;;;;;;;;;9.08;100.00;100345.91;5083761;28;20019;-87
2024/03/21 15:45:14;;;;;;;;;;;;;;;9.11;100.00;100352.91;5116826;27;20333;-84
2024/03/21 15:47:39;;;;;;;;;;;;;;;9.11;100.00;100344.09;5082637;28;19920;-86
2024/03/21 15:50:05;;;;;;;;;;;;;;;9.14;100.00;100347.50;5083481;28;19935;-88
2024/03/21 15:52:30;;;;;;;;;;;;;;;9.11;100.00;100350.28;5083715;28;19920;-84
2024/03/21 15:54:56;;;;;;;;;;;;;;;9.14;100.00;100342.22;5084155;28;19916;-84
2024/03/21 15:57:21;;;;;;;;;;;;;;;9.17;100.00;100338.63;5081289;28;19924;-87
2024/03/21 15:59:46;;;;;;;;;;;;;;;9.20;100.00;100333.25;5083132;28;19969;-85
2024/03/21 16:02:12;;;;;;;;;;;;;;;9.16;100.00;100344.81;5082553;28;19985;-85
2024/03/21 16:04:37;;;;;;;;;;;;;;;9.21;100.00;100358.81;5083841;28;20094;-88
2024/03/21 16:07:02;;;;;;;;;;;;;;;9.21;100.00;100349.09;5084058;28;20025;-84
2024/03/21 16:09:27;;;;;;;;;;;;;;;9.21;100.00;100350.88;5082993;28;19966;-86
2024/03/21 16:11:54;;;;;;;;;;;;;;;9.24;100.00;100354.28;5082163;28;19985;-87
2024/03/21 16:14:19;;;;;;;;;;;;;;;9.24;100.00;100354.28;5082340;28;19960;-84
2024/03/21 16:16:45;;;;;;;;;;;;;;;9.23;100.00;100362.25;5082973;28;19966;-83
2024/03/21 16:19:10;;;;;;;;;;;;;;;9.26;100.00;100363.03;5082429;28;19931;-91
2024/03/21 16:21:35;;;;;;;;;;;;;;;9.23;100.00;100373.69;5080996;28;19966;-89
2024/03/21 16:24:03;;;;;;;;;;;;;;;9.26;100.00;100363.03;5082137;28;20282;-90
2024/03/21 16:26:28;;;;;;;;;;;;;;;9.30;100.00;100360.31;5079504;28;19916;-90
2024/03/21 16:28:53;;;;;;;;;;;;;;;9.26;100.00;100365.69;5082305;28;20326;-87
2024/03/21 16:31:18;;;;;;;;;;;;;;;9.30;100.00;100360.31;5081290;28;19920;-84
2024/03/21 16:33:44;;;;;;;;;;;;;;;9.30;100.00;100360.31;5082704;28;19916;-85
2024/03/21 16:36:09;;;;;;;;;;;;;;;9.37;100.00;100356.59;5084064;28;20320;-88
2024/03/21 16:38:34;;;;;;;;;;;;;;;9.35;100.00;100355.75;5091352;22;20034;-85
2024/03/21 16:41:02;;;;;;;;;;;;;;;9.32;100.00;100355.84;5108170;28;19923;-92
2024/03/21 16:43:27;;;;;;;;;;;;;;;9.34;100.00;100351.41;5100957;28;20030;-88
2024/03/21 16:45:53;;;;;;;;;;;;;;;9.34;100.00;100365.47;5100922;28;20319;-87
2024/03/21 16:48:28;;;;;;;;;;;;;;;9.33;100.00;100360.22;5101119;28;19950;-90
2024/03/21 16:50:53;;;;;;;;;;;;;;;9.33;100.00;100360.22;5102882;22;20117;-87
2024/03/21 16:53:18;;;;;;;;;;;;;;;9.35;100.00;100363.69;5052361;28;20000;-84
2024/03/21 16:55:45;;;;;;;;;;;;;;;9.37;100.00;100369.81;5050614;28;19916;-84
2024/03/21 16:58:10;;;;;;;;;;;;;;;9.38;100.00;100366.25;5050971;28;19921;-88
2024/03/21 17:00:35;;;;;;;;;;;;;;;9.37;100.00;100360.09;5060847;28;19916;-87
2024/03/21 17:03:04;;;;;;;;;;;;;;;9.39;100.00;100366.19;5050586;28;20068;-87
2024/03/21 17:05:29;;;;;;;;;;;;;;;9.45;100.00;100367.81;5050592;28;19995;-83
2024/03/21 17:07:56;;;;;;;;;;;;;;;9.38;100.00;100360.94;5052270;28;19920;-87
2024/03/21 17:10:23;;;;;;;;;;;;;;;9.43;100.00;100372.28;5050086;28;19956;-87
2024/03/21 17:12:49;;;;;;;;;;;;;;;11.06;100.00;100375.03;5051573;28;20276;-89
2024/03/21 17:15:21;;;;;;;;;;;;;;;10.12;100.00;100375.47;5051923;28;19932;-85
2024/03/21 17:17:47;;;;;;;;;;;;;;;9.74;100.00;100374.88;5051524;28;20331;-87
2024/03/21 17:20:12;;;;;;;;;;;;;;;9.65;100.00;100375.16;5050880;28;19974;-89
2024/03/21 17:23:04;;;;;;;;;;;;;;;9.56;100.00;100381.59;5050750;28;19927;-92
2024/03/21 17:25:29;;;;;;;;;;;;;;;9.56;100.00;100380.75;5052159;28;20265;-89
2024/03/21 17:27:54;;;;;;;;;;;;;;;9.54;100.00;100378.13;5053606;28;19947;-84
2024/03/21 17:30:20;;;;;;;;;;;;;;;9.53;100.00;100380.81;5051402;28;19997;-85
2024/03/21 17:32:45;;;;;;;;;;;;;;;9.51;100.00;100378.22;5050216;28;19924;-85
2024/03/21 17:35:10;;;;;;;;;;;;;;;9.50;100.00;100379.13;5053543;28;19971;-85
2024/03/21 17:37:35;;;;;;;;;;;;;;;9.50;100.00;100379.13;5059924;28;20399;-86
2024/03/21 17:40:01;;;;;;;;;;;;;;;9.50;100.00;100379.13;5050454;28;19921;-86
2024/03/21 17:42:27;;;;;;;;;;;;;;;9.52;100.00;100373.78;5049444;28;19943;-87
2024/03/21 17:47:56;;;;;;;;;;;;;;;9.53;100.00;100375.53;5079306;22;19981;-82
2024/03/21 17:50:21;;;;;;;;;;;;;;;9.51;100.00;100365.00;5085207;28;20341;-84
2024/03/21 17:52:47;;;;;;;;;;;;;;;9.54;100.00;100372.84;5091827;28;19927;-85
2024/03/21 17:55:12;;;;;;;;;;;;;;;9.54;100.00;100367.56;5099300;28;20398;-85
2024/03/21 17:57:37;;;;;;;;;;;;;;;9.55;100.00;100365.75;5087732;28;19920;-84
2024/03/21 18:00:03;;;;;;;;;;;;;;;9.55;100.00;100368.41;5090197;28;19972;-84
2024/03/21 18:02:28;;;;;;;;;;;;;;;9.55;100.00;100369.25;5089468;28;20287;-85
2024/03/21 18:08:04;;;;;;;;;;;;;;;9.57;100.00;100366.56;5091412;28;20007;-86
2024/03/21 18:10:37;;;;;;;;;;;;;;;9.57;100.00;100372.75;5088189;28;19920;-89
2024/03/21 18:13:05;;;;;;;;;;;;;;;9.57;100.00;100364.81;5091045;28;19920;-84
2024/03/21 18:15:31;;;;;;;;;;;;;;;9.59;100.00;100372.72;5090684;28;19916;-85
2024/03/21 18:17:56;;;;;;;;;;;;;;;9.60;100.00;100374.44;5090171;28;20007;-87
2024/03/21 18:20:22;;;;;;;;;;;;;;;9.61;100.00;100381.47;5090744;28;20015;-86
2024/03/21 18:22:47;;;;;;;;;;;;;;;9.60;100.00;100383.22;5090296;28;20006;-81
2024/03/21 18:25:28;;;;;;;;;;;;;;;;;;;;;
2024/03/21 18:27:53;;;;;;;;;;;;;;;9.64;100.00;100392.81;5094317;28;19930;-81
2024/03/21 18:30:18;;;;;;;;;;;;;;;9.64;100.00;100387.53;5095605;28;20011;-83
2024/03/21 18:32:44;;;;;;;;;;;;;;;9.66;100.00;100398.06;5094929;28;19916;-87
2024/03/21 18:35:09;;;;;;;;;;;;;;;9.67;100.00;100394.50;5094717;28;20349;-84
2024/03/21 18:37:35;;;;;;;;;;;;;;;9.70;100.00;100398.84;5093265;28;19916;-84
2024/03/21 18:42:59;;;;;;;;;;;;;;;9.69;100.00;100394.47;5073278;28;19928;-90
2024/03/21 18:45:25;;;;;;;;;;;;;;;9.69;100.00;100402.41;5065099;28;19917;-85
2024/03/21 18:47:50;;;;;;;;;;;;;;;9.69;100.00;100400.63;5083178;28;19924;-84
2024/03/21 18:50:15;;;;;;;;;;;;;;;9.70;100.00;100399.72;5095145;28;19916;-84
2024/03/21 18:52:40;;;;;;;;;;;;;;;9.70;100.00;100401.47;5101972;22;19972;-84
2024/03/21 18:55:06;;;;;;;;;;;;;;;9.71;100.00;100395.28;5094890;28;20374;-84
2024/03/21 18:57:31;;;;;;;;;;;;;;;9.73;100.00;100404.03;5090439;28;19924;-89
2024/03/21 18:59:58;;;;;;;;;;;;;;;9.71;100.00;100405.88;5093520;28;19969;-84
2024/03/21 19:02:23;;;;;;;;;;;;;;;9.71;100.00;100406.72;5093199;28;19960;-85
2024/03/21 19:04:49;;;;;;;;;;;;;;;9.69;100.00;100408.56;5093161;28;20360;-85
2024/03/21 19:07:25;;;;;;;;;;;;;;;9.72;100.00;100413.75;5092334;28;19935;-93
2024/03/21 19:09:51;;;;;;;;;;;;;;;9.72;100.00;100411.13;5098108;28;19916;-85
2024/03/21 19:12:17;;;;;;;;;;;;;;;9.72;100.00;100418.19;5093467;28;19916;-87
2024/03/21 19:14:42;;;;;;;;;;;;;;;9.74;100.00;100416.38;5094591;28;20806;-85
2024/03/21 19:17:07;;;;;;;;;;;;;;;9.72;100.00;100418.19;5091718;28;20409;-85
2024/03/21 19:19:34;;;;;;;;;;;;;;;9.85;100.00;100419.56;5092452;28;20377;-83
2024/03/21 19:21:59;;;;;;;;;;;;;;;10.22;100.00;100418.44;5091888;28;19928;-88
2024/03/21 19:24:24;;;;;;;;;;;;;;;9.99;100.00;100424.44;5092535;28;19920;-84
2024/03/21 19:26:50;;;;;;;;;;;;;;;9.89;100.00;100422.97;5093191;28;19924;-82
2024/03/21 19:29:15;;;;;;;;;;;;;;;9.89;100.00;100420.31;5094399;28;20313;-83
2024/03/21 19:31:40;;;;;;;;;;;;;;;9.87;100.00;100424.81;5089635;28;20361;-85
2024/03/21 19:34:06;;;;;;;;;;;;;;;9.84;100.00;100419.59;5090689;28;20026;-85
2024/03/21 19:36:31;;;;;;;;;;;;;;;9.86;100.00;100423.06;5088582;28;19963;-86
2024/03/21 19:38:56;;;;;;;;;;;;;;;9.82;100.00;100420.50;5090415;28;19967;-83
2024/03/21 19:41:22;;;;;;;;;;;;;;;9.84;100.00;100412.53;5093210;28;19916;-85
2024/03/21 19:43:47;;;;;;;;;;;;;;;9.84;100.00;100414.31;5093878;28;19920;-88
2024/03/21 19:46:14;;;;;;;;;;;;;;;9.84;100.00;100415.16;5091257;28;19920;-86
2024/03/21 19:48:39;;;;;;;;;;;;;;;9.83;100.00;100405.50;5092886;28;19927;-87
2024/03/21 19:51:08;;;;;;;;;;;;;;;9.84;100.00;100411.66;5092087;28;19924;-87
2024/03/21 19:53:33;;;;;;;;;;;;;;;9.86;100.00;100412.47;5091841;28;19928;-84
2024/03/21 19:56:03;;;;;;;;;;;;;;;9.84;100.00;100407.22;5089941;28;20357;-83
2024/03/21 19:58:29;;;;;;;;;;;;;;;9.87;100.00;100411.56;5092696;28;20428;-90
2024/03/21 20:01:25;;;;;;;;;;;;;;;9.85;100.00;100408.97;5090717;28;19924;-85
2024/03/21 20:03:50;;;;;;;;;;;;;;;9.87;100.00;100417.72;5090795;28;19920;-84
2024/03/21 20:06:16;;;;;;;;;;;;;;;9.87;100.00;100422.16;5092465;28;19931;-84
2024/03/21 20:08:41;;;;;;;;;;;;;;;9.90;100.00;100425.56;5091466;28;19920;-84
2024/03/21 20:11:07;;;;;;;;;;;;;;;9.89;100.00;100426.50;5091031;28;20058;-82
2024/03/21 20:13:32;;;;;;;;;;;;;;;9.88;100.00;100430.06;5091801;28;19962;-84
2024/03/21 20:15:58;;;;;;;;;;;;;;;9.91;100.00;100429.13;5091206;28;20019;-83
2024/03/21 20:18:29;;;;;;;;;;;;;;;9.90;100.00;100440.59;5092656;28;19920;-83
2024/03/21 20:21:00;;;;;;;;;;;;;;;9.89;100.00;100437.09;5091796;28;19971;-82
2024/03/21 20:23:26;;;;;;;;;;;;;;;9.89;100.00;100437.09;5086012;28;19920;-84
2024/03/21 20:25:52;;;;;;;;;;;;;;;9.91;100.00;100439.69;5089226;28;19923;-83
2024/03/21 20:28:17;;;;;;;;;;;;;;;9.93;100.00;100437.88;5090615;28;20014;-92
2024/03/21 20:30:42;;;;;;;;;;;;;;;9.93;100.00;100444.03;5091684;28;19916;-82
2024/03/21 20:33:07;;;;;;;;;;;;;;;9.93;100.00;100440.50;5091670;28;19924;-83
2024/03/21 20:35:33;;;;;;;;;;;;;;;9.95;100.00;100438.69;5089750;28;19920;-84
2024/03/21 20:37:58;;;;;;;;;;;;;;;9.95;100.00;100443.97;5092384;28;19930;-82
2024/03/21 20:40:24;;;;;;;;;;;;;;;9.97;100.00;100447.44;5091116;28;19927;-83
2024/03/21 20:42:49;;;;;;;;;;;;;;;9.96;100.00;100453.66;5091551;28;20074;-82
2024/03/21 20:45:15;;;;;;;;;;;;;;;10.00;100.00;100450.88;5089769;28;19977;-85
2024/03/21 20:47:41;;;;;;;;;;;;;;;10.00;100.00;100445.59;5090903;28;20333;-82
2024/03/21 20:50:06;;;;;;;;;;;;;;;9.98;100.00;100451.81;5081196;28;19920;-83
2024/03/21 20:52:31;;;;;;;;;;;;;;;10.02;100.00;100447.28;5090832;28;19926;-82
2024/03/21 20:54:57;;;;;;;;;;;;;;;10.02;100.00;100453.47;5092273;28;19916;-82
2024/03/21 20:57:23;;;;;;;;;;;;;;;10.03;100.00;100454.34;5090805;28;20385;-82
2024/03/21 20:59:48;;;;;;;;;;;;;;;10.05;100.00;100450.75;5088373;28;20363;-85
2024/03/21 21:02:13;;;;;;;;;;;;;;;10.04;100.00;100442.84;5092425;28;19965;-83
2024/03/21 21:04:38;;;;;;;;;;;;;;;10.04;100.00;100446.34;5091136;28;19923;-87
2024/03/21 21:07:04;;;;;;;;;;;;;;;10.05;100.00;100448.09;5090713;28;19989;-88
2024/03/21 21:09:29;;;;;;;;;;;;;;;10.04;100.00;100454.28;5091057;28;19916;-83
2024/03/21 21:11:54;;;;;;;;;;;;;;;10.08;100.00;100466.50;5091081;28;19919;-82